sensor_id;sensor_type;location;lat;lon;timestamp;temperature;humidity
79010;DHT22;73031;44.726;37.760;2023-11-19T00:00:50;14.86;58.15
79010;DHT22;73031;44.726;37.760;2023-11-19T00:01:52;14.86;58.16
79010;DHT22;73031;44.726;37.760;2023-11-19T00:02:53;14.88;58.27
79010;DHT22;73031;44.726;37.760;2023-11-19T00:03:54;14.86;58.12
79010;DHT22;73031;44.726;37.760;2023-11-19T00:04:55;14.82;58.16
79010;DHT22;73031;44.726;37.760;2023-11-19T00:05:56;14.86;58.18
79010;DHT22;73031;44.726;37.760;2023-11-19T00:06:57;14.85;58.27
79010;DHT22;73031;44.726;37.760;2023-11-19T00:08:03;14.88;58.30
79010;DHT22;73031;44.726;37.760;2023-11-19T00:09:09;14.88;58.21
79010;DHT22;73031;44.726;37.760;2023-11-19T00:11:11;14.86;58.26
79010;DHT22;73031;44.726;37.760;2023-11-19T00:12:16;14.88;58.24
79010;DHT22;73031;44.726;37.760;2023-11-19T00:13:17;14.86;58.32
79010;DHT22;73031;44.726;37.760;2023-11-19T00:14:18;14.88;58.36
79010;DHT22;73031;44.726;37.760;2023-11-19T00:15:19;14.85;58.31
79010;DHT22;73031;44.726;37.760;2023-11-19T00:16:20;14.88;58.35
79010;DHT22;73031;44.726;37.760;2023-11-19T00:17:21;14.89;58.29
79010;DHT22;73031;44.726;37.760;2023-11-19T00:18:22;14.89;58.35
79010;DHT22;73031;44.726;37.760;2023-11-19T00:19:23;14.88;58.33
79010;DHT22;73031;44.726;37.760;2023-11-19T00:20:24;14.88;58.32
79010;DHT22;73031;44.726;37.760;2023-11-19T00:21:25;14.89;58.40
79010;DHT22;73031;44.726;37.760;2023-11-19T00:22:29;14.91;58.44
79010;DHT22;73031;44.726;37.760;2023-11-19T00:23:30;14.89;58.62
79010;DHT22;73031;44.726;37.760;2023-11-19T00:24:31;14.86;58.54
79010;DHT22;73031;44.726;37.760;2023-11-19T00:25:32;14.88;58.56
79010;DHT22;73031;44.726;37.760;2023-11-19T00:26:33;14.83;58.72
79010;DHT22;73031;44.726;37.760;2023-11-19T00:27:35;14.83;58.55
79010;DHT22;73031;44.726;37.760;2023-11-19T00:28:36;14.82;58.75
79010;DHT22;73031;44.726;37.760;2023-11-19T00:29:39;14.79;58.70
79010;DHT22;73031;44.726;37.760;2023-11-19T00:30:41;14.82;58.78
79010;DHT22;73031;44.726;37.760;2023-11-19T00:31:42;14.79;58.81
79010;DHT22;73031;44.726;37.760;2023-11-19T00:32:43;14.81;58.82
79010;DHT22;73031;44.726;37.760;2023-11-19T00:33:44;14.81;58.73
79010;DHT22;73031;44.726;37.760;2023-11-19T00:34:46;14.79;58.76
79010;DHT22;73031;44.726;37.760;2023-11-19T00:35:48;14.79;58.83
79010;DHT22;73031;44.726;37.760;2023-11-19T00:36:49;14.79;58.81
79010;DHT22;73031;44.726;37.760;2023-11-19T00:37:50;14.81;58.90
79010;DHT22;73031;44.726;37.760;2023-11-19T00:38:51;14.79;59.11
79010;DHT22;73031;44.726;37.760;2023-11-19T00:39:55;14.76;58.87
79010;DHT22;73031;44.726;37.760;2023-11-19T00:40:57;14.81;58.88
79010;DHT22;73031;44.726;37.760;2023-11-19T00:41:57;14.81;58.87
79010;DHT22;73031;44.726;37.760;2023-11-19T00:42:58;14.79;58.91
79010;DHT22;73031;44.726;37.760;2023-11-19T00:44:00;14.78;58.83
79010;DHT22;73031;44.726;37.760;2023-11-19T00:45:01;14.78;58.92
79010;DHT22;73031;44.726;37.760;2023-11-19T00:46:02;14.78;58.98
79010;DHT22;73031;44.726;37.760;2023-11-19T00:47:04;14.79;58.92
79010;DHT22;73031;44.726;37.760;2023-11-19T00:48:05;14.78;58.92
79010;DHT22;73031;44.726;37.760;2023-11-19T00:49:07;14.78;58.99
79010;DHT22;73031;44.726;37.760;2023-11-19T00:50:08;14.76;58.96
79010;DHT22;73031;44.726;37.760;2023-11-19T00:51:13;14.78;59.09
79010;DHT22;73031;44.726;37.760;2023-11-19T00:52:15;14.78;59.10
79010;DHT22;73031;44.726;37.760;2023-11-19T00:53:16;14.75;59.04
79010;DHT22;73031;44.726;37.760;2023-11-19T00:54:17;14.76;59.33
79010;DHT22;73031;44.726;37.760;2023-11-19T00:55:18;14.76;59.18
79010;DHT22;73031;44.726;37.760;2023-11-19T00:56:19;14.74;59.10
79010;DHT22;73031;44.726;37.760;2023-11-19T00:57:20;14.75;59.03
79010;DHT22;73031;44.726;37.760;2023-11-19T00:58:21;14.74;59.01
79010;DHT22;73031;44.726;37.760;2023-11-19T00:59:22;14.75;59.11
79010;DHT22;73031;44.726;37.760;2023-11-19T01:00:24;14.74;59.15
79010;DHT22;73031;44.726;37.760;2023-11-19T01:01:27;14.75;59.24
79010;DHT22;73031;44.726;37.760;2023-11-19T01:02:28;14.75;59.17
79010;DHT22;73031;44.726;37.760;2023-11-19T01:03:29;14.74;59.30
79010;DHT22;73031;44.726;37.760;2023-11-19T01:04:34;14.75;59.35
79010;DHT22;73031;44.726;37.760;2023-11-19T01:05:39;14.72;59.36
79010;DHT22;73031;44.726;37.760;2023-11-19T01:06:40;14.71;59.23
79010;DHT22;73031;44.726;37.760;2023-11-19T01:07:42;14.72;59.32
79010;DHT22;73031;44.726;37.760;2023-11-19T01:08:44;14.69;59.30
79010;DHT22;73031;44.726;37.760;2023-11-19T01:09:45;14.68;59.33
79010;DHT22;73031;44.726;37.760;2023-11-19T01:10:46;14.69;59.45
79010;DHT22;73031;44.726;37.760;2023-11-19T01:11:48;14.68;59.45
79010;DHT22;73031;44.726;37.760;2023-11-19T01:12:49;14.68;59.38
79010;DHT22;73031;44.726;37.760;2023-11-19T01:13:51;14.68;59.36
79010;DHT22;73031;44.726;37.760;2023-11-19T01:14:52;14.67;59.40
79010;DHT22;73031;44.726;37.760;2023-11-19T01:15:53;14.68;59.62
79010;DHT22;73031;44.726;37.760;2023-11-19T01:16:56;14.65;59.55
79010;DHT22;73031;44.726;37.760;2023-11-19T01:17:58;14.69;59.70
79010;DHT22;73031;44.726;37.760;2023-11-19T01:18:59;14.69;59.53
79010;DHT22;73031;44.726;37.760;2023-11-19T01:20:05;14.67;59.58
79010;DHT22;73031;44.726;37.760;2023-11-19T01:21:09;14.65;59.59
79010;DHT22;73031;44.726;37.760;2023-11-19T01:22:10;14.65;59.58
79010;DHT22;73031;44.726;37.760;2023-11-19T01:23:11;14.65;59.54
79010;DHT22;73031;44.726;37.760;2023-11-19T01:24:12;14.67;59.62
79010;DHT22;73031;44.726;37.760;2023-11-19T01:25:15;14.68;59.77
79010;DHT22;73031;44.726;37.760;2023-11-19T01:26:16;14.67;59.65
79010;DHT22;73031;44.726;37.760;2023-11-19T01:27:17;14.67;59.84
79010;DHT22;73031;44.726;37.760;2023-11-19T01:28:18;14.65;59.67
79010;DHT22;73031;44.726;37.760;2023-11-19T01:29:19;14.65;59.91
79010;DHT22;73031;44.726;37.760;2023-11-19T01:30:21;14.62;59.83
79010;DHT22;73031;44.726;37.760;2023-11-19T01:31:22;14.62;59.94
79010;DHT22;73031;44.726;37.760;2023-11-19T01:32:23;14.61;60.12
79010;DHT22;73031;44.726;37.760;2023-11-19T01:33:24;14.58;59.99
79010;DHT22;73031;44.726;37.760;2023-11-19T01:34:25;14.57;59.85
79010;DHT22;73031;44.726;37.760;2023-11-19T01:35:26;14.55;60.04
79010;DHT22;73031;44.726;37.760;2023-11-19T01:36:28;14.54;59.95
79010;DHT22;73031;44.726;37.760;2023-11-19T01:37:29;14.57;59.93
79010;DHT22;73031;44.726;37.760;2023-11-19T01:38:30;14.55;60.00
79010;DHT22;73031;44.726;37.760;2023-11-19T01:39:34;14.52;60.15
79010;DHT22;73031;44.726;37.760;2023-11-19T01:40:35;14.48;60.05
79010;DHT22;73031;44.726;37.760;2023-11-19T01:41:39;14.51;60.05
79010;DHT22;73031;44.726;37.760;2023-11-19T01:42:40;14.49;60.13
79010;DHT22;73031;44.726;37.760;2023-11-19T01:43:41;14.49;60.13
79010;DHT22;73031;44.726;37.760;2023-11-19T01:44:42;14.48;60.18
79010;DHT22;73031;44.726;37.760;2023-11-19T01:45:43;14.47;60.24
79010;DHT22;73031;44.726;37.760;2023-11-19T01:46:45;14.45;60.21
79010;DHT22;73031;44.726;37.760;2023-11-19T01:47:50;14.44;60.21
79010;DHT22;73031;44.726;37.760;2023-11-19T01:48:52;14.44;60.20
79010;DHT22;73031;44.726;37.760;2023-11-19T01:49:56;14.41;60.20
79010;DHT22;73031;44.726;37.760;2023-11-19T01:50:57;14.42;60.27
79010;DHT22;73031;44.726;37.760;2023-11-19T01:51:59;14.42;60.29
79010;DHT22;73031;44.726;37.760;2023-11-19T01:53:00;14.40;60.34
79010;DHT22;73031;44.726;37.760;2023-11-19T01:54:01;14.38;60.20
79010;DHT22;73031;44.726;37.760;2023-11-19T01:55:03;14.37;60.31
79010;DHT22;73031;44.726;37.760;2023-11-19T01:56:07;14.33;60.33
79010;DHT22;73031;44.726;37.760;2023-11-19T01:57:10;14.33;60.41
79010;DHT22;73031;44.726;37.760;2023-11-19T01:58:11;14.33;60.44
79010;DHT22;73031;44.726;37.760;2023-11-19T01:59:13;14.31;60.37
79010;DHT22;73031;44.726;37.760;2023-11-19T02:00:16;14.31;60.47
79010;DHT22;73031;44.726;37.760;2023-11-19T02:01:17;14.31;60.46
79010;DHT22;73031;44.726;37.760;2023-11-19T02:02:19;14.30;60.51
79010;DHT22;73031;44.726;37.760;2023-11-19T02:03:24;14.30;60.44
79010;DHT22;73031;44.726;37.760;2023-11-19T02:04:27;14.30;60.56
79010;DHT22;73031;44.726;37.760;2023-11-19T02:05:28;14.28;60.47
79010;DHT22;73031;44.726;37.760;2023-11-19T02:06:32;14.26;60.52
79010;DHT22;73031;44.726;37.760;2023-11-19T02:07:34;14.28;60.54
79010;DHT22;73031;44.726;37.760;2023-11-19T02:08:35;14.31;60.56
79010;DHT22;73031;44.726;37.760;2023-11-19T02:09:36;14.27;60.45
79010;DHT22;73031;44.726;37.760;2023-11-19T02:10:39;14.31;60.59
79010;DHT22;73031;44.726;37.760;2023-11-19T02:11:40;14.26;60.59
79010;DHT22;73031;44.726;37.760;2023-11-19T02:12:42;14.27;60.55
79010;DHT22;73031;44.726;37.760;2023-11-19T02:13:46;14.26;60.65
79010;DHT22;73031;44.726;37.760;2023-11-19T02:14:48;14.27;60.88
79010;DHT22;73031;44.726;37.760;2023-11-19T02:15:49;14.27;60.58
79010;DHT22;73031;44.726;37.760;2023-11-19T02:16:50;14.27;60.71
79010;DHT22;73031;44.726;37.760;2023-11-19T02:17:51;14.27;61.01
79010;DHT22;73031;44.726;37.760;2023-11-19T02:18:53;14.27;60.77
79010;DHT22;73031;44.726;37.760;2023-11-19T02:19:54;14.27;60.72
79010;DHT22;73031;44.726;37.760;2023-11-19T02:20:56;14.26;60.67
79010;DHT22;73031;44.726;37.760;2023-11-19T02:21:58;14.26;60.73
79010;DHT22;73031;44.726;37.760;2023-11-19T02:22:59;14.26;60.96
79010;DHT22;73031;44.726;37.760;2023-11-19T02:24:06;14.27;60.80
79010;DHT22;73031;44.726;37.760;2023-11-19T02:25:15;14.27;60.90
79010;DHT22;73031;44.726;37.760;2023-11-19T02:27:44;14.26;61.04
79010;DHT22;73031;44.726;37.760;2023-11-19T02:28:45;14.27;60.91
79010;DHT22;73031;44.726;37.760;2023-11-19T02:29:47;14.28;60.90
79010;DHT22;73031;44.726;37.760;2023-11-19T02:30:48;14.24;60.96
79010;DHT22;73031;44.726;37.760;2023-11-19T02:31:49;14.24;60.89
79010;DHT22;73031;44.726;37.760;2023-11-19T02:32:51;14.24;60.89
79010;DHT22;73031;44.726;37.760;2023-11-19T02:33:52;14.26;61.14
79010;DHT22;73031;44.726;37.760;2023-11-19T02:34:53;14.24;61.15
79010;DHT22;73031;44.726;37.760;2023-11-19T02:35:55;14.24;61.10
79010;DHT22;73031;44.726;37.760;2023-11-19T02:36:56;14.26;61.21
79010;DHT22;73031;44.726;37.760;2023-11-19T02:37:58;14.23;60.94
79010;DHT22;73031;44.726;37.760;2023-11-19T02:39:04;14.23;61.10
79010;DHT22;73031;44.726;37.760;2023-11-19T02:40:11;14.23;61.07
79010;DHT22;73031;44.726;37.760;2023-11-19T02:41:14;14.23;61.05
79010;DHT22;73031;44.726;37.760;2023-11-19T02:42:15;14.23;61.10
79010;DHT22;73031;44.726;37.760;2023-11-19T02:43:17;14.23;61.09
79010;DHT22;73031;44.726;37.760;2023-11-19T02:44:18;14.23;61.08
79010;DHT22;73031;44.726;37.760;2023-11-19T02:45:20;14.24;61.10
79010;DHT22;73031;44.726;37.760;2023-11-19T02:46:23;14.23;61.10
79010;DHT22;73031;44.726;37.760;2023-11-19T02:47:24;14.20;61.15
79010;DHT22;73031;44.726;37.760;2023-11-19T02:48:25;14.24;61.12
79010;DHT22;73031;44.726;37.760;2023-11-19T02:49:26;14.27;61.12
79010;DHT22;73031;44.726;37.760;2023-11-19T02:50:27;14.26;61.13
79010;DHT22;73031;44.726;37.760;2023-11-19T02:51:28;14.27;61.37
79010;DHT22;73031;44.726;37.760;2023-11-19T02:52:31;14.27;61.30
79010;DHT22;73031;44.726;37.760;2023-11-19T02:53:36;14.27;61.23
79010;DHT22;73031;44.726;37.760;2023-11-19T02:54:40;14.28;61.08
79010;DHT22;73031;44.726;37.760;2023-11-19T02:55:42;14.28;61.10
79010;DHT22;73031;44.726;37.760;2023-11-19T02:56:49;14.27;61.38
79010;DHT22;73031;44.726;37.760;2023-11-19T02:57:56;14.31;61.23
79010;DHT22;73031;44.726;37.760;2023-11-19T02:58:59;14.28;61.36
79010;DHT22;73031;44.726;37.760;2023-11-19T03:00:04;14.31;61.28
79010;DHT22;73031;44.726;37.760;2023-11-19T03:01:13;14.31;61.08
79010;DHT22;73031;44.726;37.760;2023-11-19T03:02:23;14.30;61.17
79010;DHT22;73031;44.726;37.760;2023-11-19T03:03:34;14.30;61.05
79010;DHT22;73031;44.726;37.760;2023-11-19T03:04:39;14.30;61.17
79010;DHT22;73031;44.726;37.760;2023-11-19T03:05:40;14.31;61.10
79010;DHT22;73031;44.726;37.760;2023-11-19T03:06:41;14.31;61.17
79010;DHT22;73031;44.726;37.760;2023-11-19T03:07:43;14.31;61.02
79010;DHT22;73031;44.726;37.760;2023-11-19T03:08:44;14.33;61.10
79010;DHT22;73031;44.726;37.760;2023-11-19T03:09:45;14.28;61.14
79010;DHT22;73031;44.726;37.760;2023-11-19T03:10:46;14.31;61.08
79010;DHT22;73031;44.726;37.760;2023-11-19T03:11:47;14.28;61.15
79010;DHT22;73031;44.726;37.760;2023-11-19T03:12:49;14.31;61.10
79010;DHT22;73031;44.726;37.760;2023-11-19T03:13:50;14.30;61.17
79010;DHT22;73031;44.726;37.760;2023-11-19T03:14:51;14.31;61.27
79010;DHT22;73031;44.726;37.760;2023-11-19T03:15:52;14.31;61.21
79010;DHT22;73031;44.726;37.760;2023-11-19T03:16:54;14.33;61.01
79010;DHT22;73031;44.726;37.760;2023-11-19T03:17:55;14.31;61.23
79010;DHT22;73031;44.726;37.760;2023-11-19T03:18:56;14.30;61.38
79010;DHT22;73031;44.726;37.760;2023-11-19T03:19:57;14.30;61.15
79010;DHT22;73031;44.726;37.760;2023-11-19T03:20:58;14.33;61.10
79010;DHT22;73031;44.726;37.760;2023-11-19T03:22:01;14.31;61.17
79010;DHT22;73031;44.726;37.760;2023-11-19T03:23:02;14.27;61.15
79010;DHT22;73031;44.726;37.760;2023-11-19T03:24:04;14.30;61.34
79010;DHT22;73031;44.726;37.760;2023-11-19T03:25:05;14.33;61.17
79010;DHT22;73031;44.726;37.760;2023-11-19T03:26:10;14.33;60.94
79010;DHT22;73031;44.726;37.760;2023-11-19T03:27:11;14.28;61.21
79010;DHT22;73031;44.726;37.760;2023-11-19T03:28:12;14.31;61.10
79010;DHT22;73031;44.726;37.760;2023-11-19T03:29:14;14.30;60.87
79010;DHT22;73031;44.726;37.760;2023-11-19T03:30:15;14.27;61.03
79010;DHT22;73031;44.726;37.760;2023-11-19T03:31:16;14.27;61.34
79010;DHT22;73031;44.726;37.760;2023-11-19T03:32:17;14.26;61.29
79010;DHT22;73031;44.726;37.760;2023-11-19T03:33:18;14.27;61.26
79010;DHT22;73031;44.726;37.760;2023-11-19T03:34:19;14.28;61.27
79010;DHT22;73031;44.726;37.760;2023-11-19T03:35:20;14.30;61.50
79010;DHT22;73031;44.726;37.760;2023-11-19T03:36:21;14.31;61.39
79010;DHT22;73031;44.726;37.760;2023-11-19T03:37:23;14.30;61.48
79010;DHT22;73031;44.726;37.760;2023-11-19T03:38:24;14.33;61.36
79010;DHT22;73031;44.726;37.760;2023-11-19T03:39:25;14.33;61.32
79010;DHT22;73031;44.726;37.760;2023-11-19T03:40:28;14.34;61.24
79010;DHT22;73031;44.726;37.760;2023-11-19T03:41:29;14.34;61.43
79010;DHT22;73031;44.726;37.760;2023-11-19T03:42:30;14.36;61.57
79010;DHT22;73031;44.726;37.760;2023-11-19T03:43:31;14.36;61.57
79010;DHT22;73031;44.726;37.760;2023-11-19T03:44:32;14.33;61.51
79010;DHT22;73031;44.726;37.760;2023-11-19T03:45:33;14.34;61.47
79010;DHT22;73031;44.726;37.760;2023-11-19T03:46:34;14.38;61.33
79010;DHT22;73031;44.726;37.760;2023-11-19T03:47:36;14.38;61.27
79010;DHT22;73031;44.726;37.760;2023-11-19T03:48:37;14.37;61.21
79010;DHT22;73031;44.726;37.760;2023-11-19T03:49:40;14.37;61.16
79010;DHT22;73031;44.726;37.760;2023-11-19T03:50:41;14.36;61.18
79010;DHT22;73031;44.726;37.760;2023-11-19T03:51:42;14.33;61.15
79010;DHT22;73031;44.726;37.760;2023-11-19T03:52:43;14.38;61.14
79010;DHT22;73031;44.726;37.760;2023-11-19T03:53:45;14.36;61.20
79010;DHT22;73031;44.726;37.760;2023-11-19T03:54:46;14.37;61.35
79010;DHT22;73031;44.726;37.760;2023-11-19T03:55:47;14.38;61.33
79010;DHT22;73031;44.726;37.760;2023-11-19T03:56:48;14.38;61.30
79010;DHT22;73031;44.726;37.760;2023-11-19T03:57:50;14.40;61.19
79010;DHT22;73031;44.726;37.760;2023-11-19T03:58:51;14.38;61.38
79010;DHT22;73031;44.726;37.760;2023-11-19T03:59:52;14.38;61.67
79010;DHT22;73031;44.726;37.760;2023-11-19T04:00:53;14.38;61.61
79010;DHT22;73031;44.726;37.760;2023-11-19T04:01:54;14.38;61.46
79010;DHT22;73031;44.726;37.760;2023-11-19T04:02:57;14.36;61.49
79010;DHT22;73031;44.726;37.760;2023-11-19T04:03:59;14.34;61.88
79010;DHT22;73031;44.726;37.760;2023-11-19T04:05:00;14.34;61.93
79010;DHT22;73031;44.726;37.760;2023-11-19T04:06:01;14.34;61.77
79010;DHT22;73031;44.726;37.760;2023-11-19T04:07:02;14.31;61.72
79010;DHT22;73031;44.726;37.760;2023-11-19T04:08:06;14.33;62.13
79010;DHT22;73031;44.726;37.760;2023-11-19T04:09:07;14.31;62.13
79010;DHT22;73031;44.726;37.760;2023-11-19T04:10:08;14.27;61.82
79010;DHT22;73031;44.726;37.760;2023-11-19T04:11:09;14.28;61.77
79010;DHT22;73031;44.726;37.760;2023-11-19T04:12:10;14.27;62.20
79010;DHT22;73031;44.726;37.760;2023-11-19T04:13:11;14.26;61.98
79010;DHT22;73031;44.726;37.760;2023-11-19T04:14:15;14.24;61.87
79010;DHT22;73031;44.726;37.760;2023-11-19T04:15:18;14.24;61.81
79010;DHT22;73031;44.726;37.760;2023-11-19T04:16:26;14.23;61.85
79010;DHT22;73031;44.726;37.760;2023-11-19T04:17:28;14.26;61.94
79010;DHT22;73031;44.726;37.760;2023-11-19T04:18:29;14.24;61.88
79010;DHT22;73031;44.726;37.760;2023-11-19T04:19:30;14.21;62.13
79010;DHT22;73031;44.726;37.760;2023-11-19T04:20:33;14.20;62.13
79010;DHT22;73031;44.726;37.760;2023-11-19T04:21:34;14.24;62.20
79010;DHT22;73031;44.726;37.760;2023-11-19T04:22:35;14.20;61.99
79010;DHT22;73031;44.726;37.760;2023-11-19T04:23:36;14.20;62.45
79010;DHT22;73031;44.726;37.760;2023-11-19T04:24:37;14.21;62.20
79010;DHT22;73031;44.726;37.760;2023-11-19T04:25:38;14.20;62.37
79010;DHT22;73031;44.726;37.760;2023-11-19T04:26:45;14.20;62.20
79010;DHT22;73031;44.726;37.760;2023-11-19T04:27:47;14.20;62.51
79010;DHT22;73031;44.726;37.760;2023-11-19T04:28:49;14.16;62.55
79010;DHT22;73031;44.726;37.760;2023-11-19T04:29:52;14.20;62.53
79010;DHT22;73031;44.726;37.760;2023-11-19T04:30:53;14.16;62.44
79010;DHT22;73031;44.726;37.760;2023-11-19T04:31:55;14.16;62.29
79010;DHT22;73031;44.726;37.760;2023-11-19T04:32:56;14.19;62.54
79010;DHT22;73031;44.726;37.760;2023-11-19T04:33:57;14.19;62.43
79010;DHT22;73031;44.726;37.760;2023-11-19T04:34:58;14.17;62.40
79010;DHT22;73031;44.726;37.760;2023-11-19T04:35:59;14.20;62.15
79010;DHT22;73031;44.726;37.760;2023-11-19T04:37:00;14.17;62.05
79010;DHT22;73031;44.726;37.760;2023-11-19T04:38:05;14.19;62.23
79010;DHT22;73031;44.726;37.760;2023-11-19T04:39:06;14.16;62.21
79010;DHT22;73031;44.726;37.760;2023-11-19T04:40:13;14.13;62.12
79010;DHT22;73031;44.726;37.760;2023-11-19T04:41:14;14.14;62.19
79010;DHT22;73031;44.726;37.760;2023-11-19T04:42:15;14.16;62.44
79010;DHT22;73031;44.726;37.760;2023-11-19T04:43:17;14.12;62.49
79010;DHT22;73031;44.726;37.760;2023-11-19T04:44:20;14.12;62.42
79010;DHT22;73031;44.726;37.760;2023-11-19T04:45:21;14.14;62.23
79010;DHT22;73031;44.726;37.760;2023-11-19T04:46:22;14.13;62.23
79010;DHT22;73031;44.726;37.760;2023-11-19T04:47:24;14.12;62.36
79010;DHT22;73031;44.726;37.760;2023-11-19T04:48:25;14.13;62.06
79010;DHT22;73031;44.726;37.760;2023-11-19T04:49:26;14.13;62.06
79010;DHT22;73031;44.726;37.760;2023-11-19T04:50:27;14.09;62.12
79010;DHT22;73031;44.726;37.760;2023-11-19T04:51:29;14.08;62.02
79010;DHT22;73031;44.726;37.760;2023-11-19T04:52:34;14.10;62.04
79010;DHT22;73031;44.726;37.760;2023-11-19T04:53:35;14.09;62.01
79010;DHT22;73031;44.726;37.760;2023-11-19T04:54:41;14.09;62.03
79010;DHT22;73031;44.726;37.760;2023-11-19T04:55:42;14.08;62.22
79010;DHT22;73031;44.726;37.760;2023-11-19T04:56:45;14.10;62.40
79010;DHT22;73031;44.726;37.760;2023-11-19T04:57:47;14.10;62.20
79010;DHT22;73031;44.726;37.760;2023-11-19T04:58:48;14.12;62.30
79010;DHT22;73031;44.726;37.760;2023-11-19T04:59:49;14.09;62.44
79010;DHT22;73031;44.726;37.760;2023-11-19T05:00:50;14.08;62.31
79010;DHT22;73031;44.726;37.760;2023-11-19T05:01:51;14.08;62.23
79010;DHT22;73031;44.726;37.760;2023-11-19T05:02:52;14.08;62.13
79010;DHT22;73031;44.726;37.760;2023-11-19T05:03:53;14.08;62.26
79010;DHT22;73031;44.726;37.760;2023-11-19T05:04:55;14.06;62.20
79010;DHT22;73031;44.726;37.760;2023-11-19T05:05:56;14.09;62.28
79010;DHT22;73031;44.726;37.760;2023-11-19T05:06:57;14.06;62.39
79010;DHT22;73031;44.726;37.760;2023-11-19T05:07:58;14.05;62.23
79010;DHT22;73031;44.726;37.760;2023-11-19T05:09:00;14.06;62.33
79010;DHT22;73031;44.726;37.760;2023-11-19T05:10:08;14.05;62.18
79010;DHT22;73031;44.726;37.760;2023-11-19T05:11:09;14.05;62.37
79010;DHT22;73031;44.726;37.760;2023-11-19T05:12:12;14.02;62.24
79010;DHT22;73031;44.726;37.760;2023-11-19T05:13:13;14.02;62.46
79010;DHT22;73031;44.726;37.760;2023-11-19T05:14:15;14.03;62.64
79010;DHT22;73031;44.726;37.760;2023-11-19T05:15:17;14.03;62.61
79010;DHT22;73031;44.726;37.760;2023-11-19T05:16:18;14.00;62.51
79010;DHT22;73031;44.726;37.760;2023-11-19T05:17:19;13.99;62.81
79010;DHT22;73031;44.726;37.760;2023-11-19T05:18:21;14.00;62.59
79010;DHT22;73031;44.726;37.760;2023-11-19T05:19:22;14.00;62.82
79010;DHT22;73031;44.726;37.760;2023-11-19T05:20:23;14.02;62.77
79010;DHT22;73031;44.726;37.760;2023-11-19T05:21:24;13.99;62.97
79010;DHT22;73031;44.726;37.760;2023-11-19T05:22:25;14.00;62.80
79010;DHT22;73031;44.726;37.760;2023-11-19T05:23:26;13.98;62.77
79010;DHT22;73031;44.726;37.760;2023-11-19T05:24:27;13.98;62.83
79010;DHT22;73031;44.726;37.760;2023-11-19T05:25:28;13.96;62.72
79010;DHT22;73031;44.726;37.760;2023-11-19T05:26:30;13.95;62.75
79010;DHT22;73031;44.726;37.760;2023-11-19T05:27:31;13.93;62.77
79010;DHT22;73031;44.726;37.760;2023-11-19T05:28:32;13.93;62.59
79010;DHT22;73031;44.726;37.760;2023-11-19T05:29:33;13.93;63.00
79010;DHT22;73031;44.726;37.760;2023-11-19T05:30:34;13.92;62.97
79010;DHT22;73031;44.726;37.760;2023-11-19T05:31:35;13.87;62.89
79010;DHT22;73031;44.726;37.760;2023-11-19T05:32:36;13.89;63.05
79010;DHT22;73031;44.726;37.760;2023-11-19T05:33:37;13.85;62.90
79010;DHT22;73031;44.726;37.760;2023-11-19T05:34:38;13.81;63.16
79010;DHT22;73031;44.726;37.760;2023-11-19T05:35:39;13.79;63.17
79010;DHT22;73031;44.726;37.760;2023-11-19T05:36:40;13.75;63.03
79010;DHT22;73031;44.726;37.760;2023-11-19T05:37:41;13.75;63.24
79010;DHT22;73031;44.726;37.760;2023-11-19T05:38:42;13.74;63.14
79010;DHT22;73031;44.726;37.760;2023-11-19T05:39:45;13.72;63.27
79010;DHT22;73031;44.726;37.760;2023-11-19T05:40:46;13.72;63.38
79010;DHT22;73031;44.726;37.760;2023-11-19T05:41:49;13.71;63.47
79010;DHT22;73031;44.726;37.760;2023-11-19T05:42:50;13.69;63.43
79010;DHT22;73031;44.726;37.760;2023-11-19T05:43:51;13.72;63.50
79010;DHT22;73031;44.726;37.760;2023-11-19T05:44:52;13.72;63.43
79010;DHT22;73031;44.726;37.760;2023-11-19T05:45:54;13.68;63.57
79010;DHT22;73031;44.726;37.760;2023-11-19T05:46:55;13.66;63.63
79010;DHT22;73031;44.726;37.760;2023-11-19T05:47:56;13.65;63.67
79010;DHT22;73031;44.726;37.760;2023-11-19T05:48:57;13.66;63.77
79010;DHT22;73031;44.726;37.760;2023-11-19T05:49:59;13.66;63.75
79010;DHT22;73031;44.726;37.760;2023-11-19T05:51:00;13.64;63.79
79010;DHT22;73031;44.726;37.760;2023-11-19T05:52:01;13.64;63.87
79010;DHT22;73031;44.726;37.760;2023-11-19T05:53:04;13.68;64.07
79010;DHT22;73031;44.726;37.760;2023-11-19T05:54:11;13.65;64.12
79010;DHT22;73031;44.726;37.760;2023-11-19T05:55:12;13.66;64.12
79010;DHT22;73031;44.726;37.760;2023-11-19T05:56:14;13.68;64.18
79010;DHT22;73031;44.726;37.760;2023-11-19T05:57:16;13.66;64.23
79010;DHT22;73031;44.726;37.760;2023-11-19T05:58:25;13.68;64.12
79010;DHT22;73031;44.726;37.760;2023-11-19T05:59:27;13.66;64.44
79010;DHT22;73031;44.726;37.760;2023-11-19T06:00:28;13.66;64.37
79010;DHT22;73031;44.726;37.760;2023-11-19T06:01:29;13.68;64.25
79010;DHT22;73031;44.726;37.760;2023-11-19T06:02:32;13.69;64.35
79010;DHT22;73031;44.726;37.760;2023-11-19T06:03:34;13.69;64.45
79010;DHT22;73031;44.726;37.760;2023-11-19T06:04:35;13.72;64.44
79010;DHT22;73031;44.726;37.760;2023-11-19T06:05:37;13.68;64.47
79010;DHT22;73031;44.726;37.760;2023-11-19T06:06:38;13.72;64.51
79010;DHT22;73031;44.726;37.760;2023-11-19T06:07:40;13.74;64.55
79010;DHT22;73031;44.726;37.760;2023-11-19T06:08:42;13.74;64.53
79010;DHT22;73031;44.726;37.760;2023-11-19T06:09:43;13.75;64.55
79010;DHT22;73031;44.726;37.760;2023-11-19T06:10:44;13.79;64.53
79010;DHT22;73031;44.726;37.760;2023-11-19T06:11:47;13.78;64.58
79010;DHT22;73031;44.726;37.760;2023-11-19T06:12:50;13.79;64.52
79010;DHT22;73031;44.726;37.760;2023-11-19T06:13:56;13.82;64.60
79010;DHT22;73031;44.726;37.760;2023-11-19T06:14:58;13.79;64.52
79010;DHT22;73031;44.726;37.760;2023-11-19T06:15:59;13.82;64.66
79010;DHT22;73031;44.726;37.760;2023-11-19T06:17:00;13.85;64.60
79010;DHT22;73031;44.726;37.760;2023-11-19T06:18:02;13.87;64.58
79010;DHT22;73031;44.726;37.760;2023-11-19T06:19:04;13.89;64.49
79010;DHT22;73031;44.726;37.760;2023-11-19T06:20:06;13.87;64.46
79010;DHT22;73031;44.726;37.760;2023-11-19T06:21:08;13.89;64.78
79010;DHT22;73031;44.726;37.760;2023-11-19T06:22:09;13.90;64.49
79010;DHT22;73031;44.726;37.760;2023-11-19T06:23:11;13.89;64.53
79010;DHT22;73031;44.726;37.760;2023-11-19T06:24:12;13.90;64.45
79010;DHT22;73031;44.726;37.760;2023-11-19T06:25:13;13.93;64.60
79010;DHT22;73031;44.726;37.760;2023-11-19T06:26:15;13.92;64.94
79010;DHT22;73031;44.726;37.760;2023-11-19T06:27:17;13.93;64.68